Time;durP1;ratioP1;P1;durP2;ratioP2;P2;SDS_P1;SDS_P2;PMS_P1;PMS_P2;Temp;Humidity;BMP_temperature;BMP_pressure;BME280_temperature;BME280_humidity;BME280_pressure;Samples;Min_cycle;Max_cycle;Signal;HPM_P1;HPM_P2
2024/01/25 00:01:08;;;;;;;445.03;406.37;;;5.40;99.90;;;;;;4951470;28;20030;-77
2024/01/25 00:03:34;;;;;;;286.17;264.63;;;5.30;99.90;;;;;;4955886;28;20039;-77
2024/01/25 00:06:00;;;;;;;261.63;242.97;;;5.30;99.90;;;;;;4950561;28;20074;-78
2024/01/25 00:08:25;;;;;;;215.13;199.47;;;5.30;99.90;;;;;;4935679;28;20051;-78
2024/01/25 00:10:51;;;;;;;383.13;350.20;;;5.20;99.90;;;;;;4933736;28;20043;-78
2024/01/25 00:13:17;;;;;;;166.60;153.20;;;5.20;99.90;;;;;;4926937;29;20074;-77
2024/01/25 00:15:42;;;;;;;183.57;169.77;;;5.10;99.90;;;;;;4941414;28;20125;-77
2024/01/25 00:18:08;;;;;;;174.83;160.80;;;5.10;99.90;;;;;;4954181;28;20127;-77
2024/01/25 00:20:34;;;;;;;188.87;174.90;;;5.10;99.90;;;;;;4947922;28;20573;-77
2024/01/25 00:22:59;;;;;;;193.70;179.07;;;5.00;99.90;;;;;;4929979;29;20035;-78
2024/01/25 00:25:25;;;;;;;184.53;170.80;;;5.10;99.90;;;;;;4927568;29;20080;-77
2024/01/25 00:27:51;;;;;;;165.93;153.40;;;5.10;99.90;;;;;;4936666;29;20496;-77
2024/01/25 00:30:16;;;;;;;155.37;143.03;;;5.10;99.90;;;;;;4954373;28;20047;-77
2024/01/25 00:32:42;;;;;;;263.30;242.23;;;5.10;99.90;;;;;;4960215;28;20035;-77
2024/01/25 00:35:10;;;;;;;236.40;219.83;;;5.20;99.90;;;;;;4948128;28;20091;-78
2024/01/25 00:37:37;;;;;;;164.63;152.48;;;5.30;99.90;;;;;;4936277;29;20062;-77
2024/01/25 00:40:03;;;;;;;147.00;134.93;;;5.30;99.90;;;;;;4950779;28;20584;-77
2024/01/25 00:42:30;;;;;;;188.60;175.80;;;5.30;99.90;;;;;;4956966;28;20053;-77
2024/01/25 00:44:56;;;;;;;334.45;307.77;;;5.30;99.90;;;;;;4935218;28;20044;-77
2024/01/25 00:47:22;;;;;;;204.73;190.30;;;5.30;99.90;;;;;;4950467;28;20421;-77
2024/01/25 00:49:48;;;;;;;196.93;181.93;;;5.20;99.90;;;;;;4937334;29;20098;-77
2024/01/25 00:52:14;;;;;;;220.43;203.10;;;5.20;99.90;;;;;;4937563;29;20042;-77
2024/01/25 00:54:40;;;;;;;155.52;143.48;;;5.20;99.90;;;;;;4952928;28;20084;-78
2024/01/25 00:57:06;;;;;;;265.80;246.63;;;5.10;99.90;;;;;;4938837;28;20082;-77
2024/01/25 00:59:33;;;;;;;241.15;224.00;;;5.10;99.90;;;;;;4946873;28;20051;-77
2024/01/25 01:01:59;;;;;;;323.05;297.67;;;5.10;99.90;;;;;;4944071;28;20054;-77
2024/01/25 01:04:26;;;;;;;333.10;307.95;;;5.20;99.90;;;;;;4945577;28;20396;-77
2024/01/25 01:06:52;;;;;;;160.10;147.45;;;5.20;99.90;;;;;;4953747;28;20466;-77
2024/01/25 01:09:18;;;;;;;295.77;271.95;;;5.20;99.90;;;;;;4971389;28;20061;-77
2024/01/25 01:11:43;;;;;;;254.37;235.27;;;5.20;99.90;;;;;;4949310;28;20040;-77
2024/01/25 01:14:09;;;;;;;196.13;182.17;;;5.10;99.90;;;;;;4957963;28;20403;-77
2024/01/25 01:16:36;;;;;;;237.87;220.90;;;5.10;99.90;;;;;;4955237;28;20038;-77
2024/01/25 01:19:05;;;;;;;149.82;137.93;;;5.00;99.90;;;;;;4962738;28;20047;-77
2024/01/25 01:21:35;;;;;;;200.05;184.45;;;5.00;99.90;;;;;;4946642;28;20577;-77
2024/01/25 01:24:01;;;;;;;108.35;99.15;;;4.90;99.90;;;;;;4958936;28;20043;-77
2024/01/25 01:26:27;;;;;;;127.23;116.80;;;4.90;99.90;;;;;;4954076;29;20046;-77
2024/01/25 01:28:52;;;;;;;111.87;101.70;;;4.80;99.90;;;;;;4950017;29;20724;-77
2024/01/25 01:31:18;;;;;;;152.67;140.73;;;4.80;99.90;;;;;;4954468;29;20039;-77
2024/01/25 01:33:44;;;;;;;206.73;189.77;;;4.70;99.90;;;;;;4938237;29;20040;-77
2024/01/25 01:36:09;;;;;;;228.83;211.53;;;4.70;99.90;;;;;;4931552;28;20102;-77
2024/01/25 01:38:35;;;;;;;183.17;168.70;;;4.70;99.90;;;;;;4963362;28;20066;-78
2024/01/25 01:41:01;;;;;;;162.77;148.90;;;4.70;99.90;;;;;;4945804;28;20038;-77
2024/01/25 01:43:26;;;;;;;183.00;169.17;;;4.70;99.90;;;;;;4948529;28;20040;-77
2024/01/25 01:45:55;;;;;;;116.93;106.67;;;4.60;99.90;;;;;;4953461;28;20040;-77
2024/01/25 01:48:21;;;;;;;167.10;153.52;;;4.60;99.90;;;;;;4964362;28;20046;-77
2024/01/25 01:50:47;;;;;;;110.67;101.40;;;4.60;99.90;;;;;;4948693;28;20119;-77
2024/01/25 01:53:13;;;;;;;172.07;158.68;;;4.60;99.90;;;;;;4935882;28;20178;-78
2024/01/25 01:55:41;;;;;;;177.77;163.87;;;4.50;99.90;;;;;;4932895;29;20071;-77
2024/01/25 01:58:07;;;;;;;170.88;157.00;;;4.50;99.90;;;;;;4944000;28;20118;-78
2024/01/25 02:00:34;;;;;;;277.73;256.33;;;4.50;99.90;;;;;;4930423;29;20058;-77
2024/01/25 02:02:59;;;;;;;190.52;176.02;;;4.50;99.90;;;;;;4945054;28;20050;-78
2024/01/25 02:05:25;;;;;;;101.90;92.73;;;4.60;99.90;;;;;;4952022;28;20135;-78
2024/01/25 02:07:52;;;;;;;321.00;293.90;;;4.60;99.90;;;;;;4950120;28;20067;-77
2024/01/25 02:10:18;;;;;;;176.73;162.95;;;4.60;99.90;;;;;;4951182;28;20063;-77
2024/01/25 02:12:43;;;;;;;125.03;114.33;;;4.60;99.90;;;;;;4946740;28;20095;-77
2024/01/25 02:15:09;;;;;;;116.33;106.07;;;4.50;99.90;;;;;;4948966;29;20039;-76
2024/01/25 02:17:35;;;;;;;278.80;254.80;;;4.50;99.90;;;;;;4928328;29;20039;-77
2024/01/25 02:20:03;;;;;;;108.35;99.32;;;4.50;99.90;;;;;;4946055;29;20107;-77
2024/01/25 02:22:29;;;;;;;97.10;87.68;;;4.60;99.90;;;;;;4967179;28;20049;-77
2024/01/25 02:24:54;;;;;;;152.57;139.87;;;4.50;99.90;;;;;;4961342;28;20107;-77
2024/01/25 02:27:20;;;;;;;108.00;98.17;;;4.50;99.90;;;;;;4963079;28;20319;-77
2024/01/25 02:29:46;;;;;;;215.23;197.13;;;4.50;99.90;;;;;;4940920;29;20403;-77
2024/01/25 02:32:12;;;;;;;96.23;87.30;;;4.40;99.90;;;;;;4968065;28;20106;-77
2024/01/25 02:34:37;;;;;;;174.53;161.17;;;4.40;99.90;;;;;;4961833;28;20080;-78
2024/01/25 02:37:03;;;;;;;111.70;101.23;;;4.40;99.90;;;;;;4962129;28;20441;-77
2024/01/25 02:39:29;;;;;;;146.67;134.30;;;4.40;99.90;;;;;;4956639;28;20042;-78
2024/01/25 02:41:55;;;;;;;118.03;107.30;;;4.40;99.90;;;;;;4956783;28;20043;-77
2024/01/25 02:44:20;;;;;;;126.33;115.83;;;4.40;99.90;;;;;;4951346;28;20047;-77
2024/01/25 02:46:46;;;;;;;148.90;137.83;;;4.40;99.90;;;;;;4932986;28;20083;-77
2024/01/25 02:49:12;;;;;;;171.40;157.85;;;4.40;99.90;;;;;;4949149;29;20142;-77
2024/01/25 02:51:38;;;;;;;179.30;163.53;;;4.40;99.90;;;;;;4961686;29;20067;-77
2024/01/25 02:54:03;;;;;;;89.60;81.70;;;4.40;99.90;;;;;;4952587;29;20071;-78
2024/01/25 02:56:34;;;;;;;97.43;88.50;;;4.30;99.90;;;;;;4960206;29;20122;-77
2024/01/25 02:59:03;;;;;;;129.35;118.18;;;4.30;99.90;;;;;;4952060;28;20039;-77
2024/01/25 03:01:38;;;;;;;185.45;171.27;;;4.30;99.90;;;;;;4938187;29;20044;-77
2024/01/25 03:04:03;;;;;;;99.88;90.13;;;4.20;99.90;;;;;;4945808;29;20043;-77
2024/01/25 03:06:29;;;;;;;132.17;121.07;;;4.30;99.90;;;;;;4962841;28;20155;-77
2024/01/25 03:08:55;;;;;;;90.67;82.53;;;4.20;99.90;;;;;;4959108;28;20059;-77
2024/01/25 03:11:20;;;;;;;112.43;102.57;;;4.20;99.90;;;;;;4963446;28;20066;-77
2024/01/25 03:13:46;;;;;;;101.83;93.20;;;4.20;99.90;;;;;;4941541;29;20035;-77
2024/01/25 03:16:12;;;;;;;100.50;91.77;;;4.10;99.90;;;;;;4945666;29;20486;-77
2024/01/25 03:18:37;;;;;;;97.63;88.63;;;4.10;99.90;;;;;;4953882;28;20044;-78
2024/01/25 03:21:03;;;;;;;112.10;102.00;;;4.00;99.90;;;;;;4941126;28;20049;-77
2024/01/25 03:23:29;;;;;;;106.63;97.23;;;4.00;99.90;;;;;;4958713;28;20090;-78
2024/01/25 03:25:54;;;;;;;74.20;67.27;;;4.00;99.90;;;;;;4936635;29;20047;-77
2024/01/25 03:28:20;;;;;;;95.50;86.37;;;4.00;99.90;;;;;;4958448;28;20039;-77
2024/01/25 03:30:46;;;;;;;110.17;100.80;;;3.90;99.90;;;;;;4944830;29;20039;-77
2024/01/25 03:33:12;;;;;;;89.80;80.83;;;3.90;99.90;;;;;;4951867;28;20043;-77
2024/01/25 03:35:37;;;;;;;101.47;92.23;;;3.90;99.90;;;;;;4969006;28;20051;-77
2024/01/25 03:38:03;;;;;;;94.60;86.23;;;3.90;99.90;;;;;;4950153;29;20065;-77
2024/01/25 03:40:29;;;;;;;116.23;105.73;;;3.80;99.90;;;;;;4966983;28;20098;-77
2024/01/25 03:42:54;;;;;;;150.93;138.47;;;3.80;99.90;;;;;;4956417;28;20035;-77
2024/01/25 03:45:20;;;;;;;79.83;71.83;;;3.80;99.90;;;;;;4956315;28;20099;-77
2024/01/25 03:47:46;;;;;;;88.18;80.05;;;3.80;99.90;;;;;;4959821;28;20077;-77
2024/01/25 03:50:12;;;;;;;95.73;87.23;;;3.80;99.90;;;;;;4948011;29;20039;-77
2024/01/25 03:52:38;;;;;;;94.53;84.73;;;3.70;99.90;;;;;;4941035;29;20047;-77
2024/01/25 03:55:04;;;;;;;241.17;222.43;;;3.70;99.90;;;;;;4963626;28;20035;-77
2024/01/25 03:57:30;;;;;;;137.05;124.75;;;3.70;99.90;;;;;;4962520;28;20387;-77
2024/01/25 03:59:55;;;;;;;108.83;98.43;;;3.70;99.90;;;;;;4960126;28;20205;-77
2024/01/25 04:02:21;;;;;;;156.67;142.83;;;3.70;99.90;;;;;;4954908;28;20039;-77
2024/01/25 04:04:47;;;;;;;77.80;69.53;;;3.70;99.90;;;;;;4951737;29;20047;-77
2024/01/25 04:07:12;;;;;;;116.93;105.93;;;3.70;99.90;;;;;;4963114;28;20059;-77
2024/01/25 04:09:39;;;;;;;134.00;122.20;;;3.70;99.90;;;;;;4953200;28;20080;-76
2024/01/25 04:12:06;;;;;;;125.97;114.35;;;3.70;99.90;;;;;;4963833;28;20074;-77
2024/01/25 04:14:31;;;;;;;82.43;72.75;;;3.80;99.90;;;;;;4965809;28;20039;-76
2024/01/25 04:16:57;;;;;;;78.90;71.00;;;3.70;99.90;;;;;;4952072;28;20078;-77
2024/01/25 04:19:24;;;;;;;106.53;95.70;;;3.70;99.90;;;;;;4958600;28;20101;-77
2024/01/25 04:21:49;;;;;;;121.05;109.25;;;3.60;99.90;;;;;;4959955;28;20083;-77
2024/01/25 04:24:15;;;;;;;100.57;91.23;;;3.60;99.90;;;;;;4956277;28;20047;-77
2024/01/25 04:26:41;;;;;;;78.60;70.30;;;3.60;99.90;;;;;;4964526;28;20051;-77
2024/01/25 04:29:06;;;;;;;86.07;77.33;;;3.60;99.90;;;;;;4967663;28;20047;-78
2024/01/25 04:31:32;;;;;;;112.17;101.70;;;3.50;99.90;;;;;;4964879;28;20066;-78
2024/01/25 04:33:58;;;;;;;134.10;123.47;;;3.60;99.90;;;;;;4960003;28;20155;-77
2024/01/25 04:36:23;;;;;;;73.57;59.80;;;3.50;99.90;;;;;;4965716;28;20466;-78
2024/01/25 04:38:49;;;;;;;90.93;81.30;;;3.50;99.90;;;;;;4964074;28;20045;-78
2024/01/25 04:41:15;;;;;;;91.03;81.20;;;3.50;99.90;;;;;;4959887;28;20039;-78
2024/01/25 04:43:41;;;;;;;69.93;62.17;;;3.50;99.90;;;;;;4959278;28;20106;-77
2024/01/25 04:46:07;;;;;;;69.97;60.47;;;3.40;99.90;;;;;;4973215;28;20039;-78
2024/01/25 04:48:32;;;;;;;84.03;73.33;;;3.40;99.90;;;;;;4957701;28;20046;-77
2024/01/25 04:50:59;;;;;;;88.33;78.70;;;3.30;99.90;;;;;;4963349;28;20046;-77
2024/01/25 04:53:25;;;;;;;71.43;56.92;;;3.30;99.90;;;;;;4964296;28;20046;-77
2024/01/25 04:55:50;;;;;;;85.50;76.75;;;3.30;99.90;;;;;;4955048;28;20035;-78
2024/01/25 04:58:16;;;;;;;160.50;145.90;;;3.20;99.90;;;;;;4949092;29;20046;-77
2024/01/25 05:00:42;;;;;;;91.27;76.80;;;3.20;99.90;;;;;;4964338;28;20078;-77
2024/01/25 05:03:07;;;;;;;82.33;68.90;;;3.20;99.90;;;;;;4962159;28;20039;-77
2024/01/25 05:05:33;;;;;;;130.97;119.60;;;3.30;99.90;;;;;;4965028;28;20146;-77
2024/01/25 05:07:59;;;;;;;87.67;70.60;;;3.30;99.90;;;;;;4962542;28;20062;-77
2024/01/25 05:10:25;;;;;;;70.47;56.97;;;3.30;99.90;;;;;;4935854;29;20103;-78
2024/01/25 05:12:51;;;;;;;74.13;57.28;;;3.30;99.90;;;;;;4947726;29;20058;-77
2024/01/25 05:15:16;;;;;;;74.40;66.80;;;3.20;99.90;;;;;;4954410;29;20055;-77
2024/01/25 05:17:42;;;;;;;80.87;72.13;;;3.20;99.90;;;;;;4945157;29;20046;-78
2024/01/25 05:20:08;;;;;;;88.53;79.20;;;3.20;99.90;;;;;;4952948;28;20050;-77
2024/01/25 05:22:40;;;;;;;87.30;78.38;;;3.10;99.90;;;;;;4950941;29;20047;-77
2024/01/25 05:25:06;;;;;;;79.03;70.80;;;3.20;99.90;;;;;;4948785;29;20035;-77
2024/01/25 05:27:31;;;;;;;64.35;56.58;;;3.20;99.90;;;;;;4948091;28;20047;-78
2024/01/25 05:29:58;;;;;;;76.30;59.83;;;3.20;99.90;;;;;;4956751;28;20043;-77
2024/01/25 05:32:23;;;;;;;79.93;71.45;;;3.10;99.90;;;;;;4941001;29;20035;-77
2024/01/25 05:34:49;;;;;;;80.53;65.10;;;3.10;99.90;;;;;;4958858;28;20046;-78
2024/01/25 05:37:15;;;;;;;78.93;57.10;;;3.00;99.90;;;;;;4967281;28;20035;-77
2024/01/25 05:39:40;;;;;;;70.73;51.40;;;3.00;99.90;;;;;;4962340;29;20067;-77
2024/01/25 05:42:06;;;;;;;75.93;55.80;;;3.00;99.90;;;;;;4960399;28;20046;-77
2024/01/25 05:44:32;;;;;;;72.07;52.47;;;2.90;99.90;;;;;;4959561;28;20513;-77
2024/01/25 05:46:57;;;;;;;67.63;58.77;;;2.90;99.90;;;;;;4964387;28;20054;-77
2024/01/25 05:49:23;;;;;;;80.20;67.10;;;2.90;99.90;;;;;;4965857;29;20048;-77
2024/01/25 05:51:49;;;;;;;70.10;57.37;;;2.90;99.90;;;;;;4948396;29;20032;-77
2024/01/25 05:54:15;;;;;;;61.47;45.77;;;2.90;99.90;;;;;;4947814;29;20046;-77
2024/01/25 05:56:40;;;;;;;74.60;56.47;;;2.90;99.90;;;;;;4971170;28;20046;-77
2024/01/25 05:59:06;;;;;;;73.00;64.97;;;2.80;99.90;;;;;;4971030;28;20053;-77
2024/01/25 06:01:32;;;;;;;70.87;60.33;;;2.80;99.90;;;;;;4967725;28;20126;-77
2024/01/25 06:03:57;;;;;;;85.97;77.30;;;2.70;99.90;;;;;;4967716;28;20508;-78
2024/01/25 06:06:23;;;;;;;101.60;91.97;;;2.70;99.90;;;;;;4946793;28;20123;-77
2024/01/25 06:08:49;;;;;;;69.73;47.60;;;2.70;99.90;;;;;;4967554;28;20053;-77
2024/01/25 06:11:15;;;;;;;70.90;55.47;;;2.70;99.90;;;;;;4979080;28;20043;-77
2024/01/25 06:13:41;;;;;;;72.95;63.40;;;2.70;99.90;;;;;;4957957;28;20035;-77
2024/01/25 06:16:07;;;;;;;58.60;41.83;;;2.70;99.90;;;;;;4970665;28;20042;-78
2024/01/25 06:18:32;;;;;;;67.67;40.77;;;2.70;99.90;;;;;;4970538;28;20120;-77
2024/01/25 06:20:58;;;;;;;66.17;43.00;;;2.60;99.90;;;;;;4951747;28;20054;-77
2024/01/25 06:23:24;;;;;;;74.80;67.10;;;2.50;99.90;;;;;;4958507;28;20034;-77
2024/01/25 06:25:49;;;;;;;60.93;40.83;;;2.40;99.90;;;;;;4965733;28;20066;-77
2024/01/25 06:28:15;;;;;;;63.50;44.33;;;2.40;99.90;;;;;;4965818;28;20066;-77
2024/01/25 06:30:41;;;;;;;81.90;72.83;;;2.40;99.90;;;;;;4956276;29;20075;-77
2024/01/25 06:33:06;;;;;;;71.63;59.13;;;2.30;99.90;;;;;;4969458;28;20035;-77
2024/01/25 06:35:32;;;;;;;71.33;50.33;;;2.30;99.90;;;;;;4952474;28;20046;-77
2024/01/25 06:37:58;;;;;;;71.97;39.73;;;2.30;99.90;;;;;;4973183;29;20050;-76
2024/01/25 06:40:23;;;;;;;59.47;49.87;;;2.30;99.90;;;;;;4974308;28;20035;-77
2024/01/25 06:42:49;;;;;;;60.53;49.37;;;2.30;99.90;;;;;;4951200;29;20048;-77
2024/01/25 06:45:15;;;;;;;63.83;36.23;;;2.30;99.90;;;;;;4959097;28;20043;-77
2024/01/25 06:47:40;;;;;;;65.43;39.73;;;2.20;99.90;;;;;;4957953;29;20203;-77
2024/01/25 06:50:07;;;;;;;65.93;37.37;;;2.20;99.90;;;;;;4968129;29;20075;-77
2024/01/25 06:52:33;;;;;;;68.40;47.33;;;2.10;99.90;;;;;;4974128;28;20046;-78
2024/01/25 06:54:59;;;;;;;58.92;47.65;;;2.10;99.90;;;;;;4964000;28;20154;-77
2024/01/25 06:57:24;;;;;;;69.80;50.57;;;2.10;99.90;;;;;;4968445;28;20075;-75
2024/01/25 06:59:50;;;;;;;57.73;40.53;;;2.10;99.90;;;;;;4965710;28;20047;-75
2024/01/25 07:02:16;;;;;;;64.27;36.97;;;2.20;99.90;;;;;;4964647;28;20058;-74
2024/01/25 07:04:41;;;;;;;71.47;38.73;;;2.20;99.90;;;;;;4973098;28;20049;-77
2024/01/25 07:07:07;;;;;;;49.93;33.30;;;2.20;99.90;;;;;;4954336;29;20078;-75
2024/01/25 07:09:33;;;;;;;62.77;41.90;;;2.10;99.90;;;;;;4946566;29;20047;-75
2024/01/25 07:11:58;;;;;;;61.27;36.77;;;2.10;99.90;;;;;;4947229;28;20048;-75
2024/01/25 07:14:24;;;;;;;60.07;33.40;;;2.10;99.90;;;;;;4965712;28;20492;-75
2024/01/25 07:16:50;;;;;;;61.40;34.07;;;2.10;99.90;;;;;;4959781;28;20039;-75
2024/01/25 07:19:15;;;;;;;65.20;36.30;;;2.10;99.90;;;;;;4960158;28;20105;-75
2024/01/25 07:21:41;;;;;;;64.40;32.67;;;2.00;99.90;;;;;;4939203;29;20068;-75
2024/01/25 07:24:07;;;;;;;51.87;36.13;;;2.00;99.90;;;;;;4946211;28;20111;-74
2024/01/25 07:26:33;;;;;;;58.97;33.20;;;2.00;99.90;;;;;;4968737;28;20043;-75
2024/01/25 07:28:59;;;;;;;64.13;52.17;;;2.00;99.90;;;;;;4963182;28;20062;-75
2024/01/25 07:31:26;;;;;;;67.80;40.17;;;2.00;99.90;;;;;;4962441;28;20131;-75
2024/01/25 07:33:52;;;;;;;66.00;35.30;;;2.00;99.90;;;;;;4962674;29;20035;-75
2024/01/25 07:36:18;;;;;;;61.58;32.80;;;1.90;99.90;;;;;;4954197;28;20047;-75
2024/01/25 07:38:46;;;;;;;56.33;36.92;;;1.90;99.90;;;;;;4961173;28;20080;-75
2024/01/25 07:41:12;;;;;;;64.03;39.90;;;1.90;99.90;;;;;;4950373;29;20039;-75
2024/01/25 07:43:38;;;;;;;60.10;35.88;;;1.90;99.90;;;;;;4953156;28;20047;-76
2024/01/25 07:46:04;;;;;;;71.50;48.80;;;1.90;99.90;;;;;;4956250;28;20039;-75
2024/01/25 07:48:30;;;;;;;65.40;34.80;;;2.00;99.90;;;;;;4960027;28;20050;-76
2024/01/25 07:50:56;;;;;;;65.32;42.90;;;2.00;99.90;;;;;;4967087;28;20103;-75
2024/01/25 07:53:22;;;;;;;69.57;35.22;;;2.10;99.90;;;;;;4946986;28;20046;-75
2024/01/25 07:55:48;;;;;;;71.30;57.33;;;2.10;99.90;;;;;;4941946;29;20080;-75
2024/01/25 07:58:15;;;;;;;59.50;35.23;;;2.10;99.90;;;;;;4949621;28;20038;-75
2024/01/25 08:00:42;;;;;;;60.78;29.90;;;2.20;99.90;;;;;;4965560;29;20043;-75
2024/01/25 08:03:08;;;;;;;66.70;57.60;;;2.30;99.90;;;;;;4949886;29;20047;-75
2024/01/25 08:05:33;;;;;;;65.47;43.45;;;2.30;99.90;;;;;;4954221;28;20412;-76
2024/01/25 08:07:59;;;;;;;68.27;54.17;;;2.30;99.90;;;;;;4949669;28;20051;-76
2024/01/25 08:10:25;;;;;;;87.47;70.07;;;2.40;99.90;;;;;;4968961;28;20045;-75
2024/01/25 08:12:51;;;;;;;90.03;73.10;;;2.50;99.90;;;;;;4945112;29;20044;-76
2024/01/25 08:15:17;;;;;;;66.13;53.88;;;2.60;99.90;;;;;;4967242;28;20034;-75
2024/01/25 08:17:43;;;;;;;67.37;51.17;;;2.60;99.90;;;;;;4965994;28;20071;-75
2024/01/25 08:20:10;;;;;;;88.60;76.57;;;2.60;99.90;;;;;;4967408;28;20039;-76
2024/01/25 08:22:36;;;;;;;86.10;70.32;;;2.60;99.90;;;;;;4945773;28;20075;-75
2024/01/25 08:25:04;;;;;;;94.50;84.70;;;2.70;99.90;;;;;;4970693;28;20043;-75
2024/01/25 08:27:29;;;;;;;84.32;64.55;;;2.60;99.90;;;;;;4979936;28;20053;-75
2024/01/25 08:29:55;;;;;;;123.50;111.97;;;2.60;99.90;;;;;;4970531;28;20107;-75
2024/01/25 08:32:21;;;;;;;62.43;45.43;;;2.60;99.90;;;;;;4962530;28;20031;-75
2024/01/25 08:34:46;;;;;;;59.77;46.87;;;2.60;99.90;;;;;;4962216;28;20043;-76
2024/01/25 08:37:12;;;;;;;73.10;42.47;;;2.60;99.90;;;;;;4974664;28;20043;-75
2024/01/25 08:39:38;;;;;;;83.60;74.27;;;2.60;99.90;;;;;;4966351;28;20035;-75
2024/01/25 08:42:06;;;;;;;65.87;49.47;;;2.60;99.90;;;;;;4964668;28;20053;-75
2024/01/25 08:44:32;;;;;;;87.28;75.78;;;2.70;99.90;;;;;;4953886;29;20071;-75
2024/01/25 08:46:57;;;;;;;73.50;63.58;;;2.70;99.90;;;;;;4972851;28;20019;-75
2024/01/25 08:49:23;;;;;;;94.53;84.93;;;2.80;99.90;;;;;;4971602;28;20110;-75
2024/01/25 08:51:49;;;;;;;72.47;61.33;;;2.80;99.90;;;;;;4956373;29;20053;-75
2024/01/25 08:54:15;;;;;;;69.72;52.05;;;2.90;99.90;;;;;;4946630;29;20040;-75
2024/01/25 08:56:40;;;;;;;72.60;54.23;;;2.90;99.90;;;;;;4957860;29;20050;-75
2024/01/25 08:59:07;;;;;;;70.83;63.53;;;3.00;99.90;;;;;;4972830;28;20035;-75
2024/01/25 09:01:32;;;;;;;74.65;45.33;;;3.10;99.90;;;;;;4968094;28;20050;-75
2024/01/25 09:04:02;;;;;;;70.27;55.00;;;3.10;99.90;;;;;;4953813;28;20019;-74
2024/01/25 09:06:30;;;;;;;69.00;47.33;;;3.20;99.90;;;;;;4965890;28;20061;-75
2024/01/25 09:08:56;;;;;;;77.22;57.97;;;3.20;99.90;;;;;;4971754;28;20034;-75
2024/01/25 09:11:21;;;;;;;74.57;57.07;;;3.30;99.90;;;;;;4958936;29;20059;-75
2024/01/25 09:13:47;;;;;;;74.27;66.23;;;3.40;99.90;;;;;;4954933;29;20291;-75
2024/01/25 09:16:14;;;;;;;98.83;88.43;;;3.50;99.90;;;;;;4969282;28;20044;-75
2024/01/25 09:18:39;;;;;;;86.38;77.82;;;3.50;99.90;;;;;;4973599;28;20038;-76
2024/01/25 09:21:05;;;;;;;111.57;101.27;;;3.60;99.90;;;;;;4959147;28;20102;-76
2024/01/25 09:23:31;;;;;;;121.75;110.57;;;3.70;99.90;;;;;;4967359;28;20075;-76
2024/01/25 09:25:57;;;;;;;98.50;88.67;;;3.70;99.90;;;;;;4954698;28;20141;-76
2024/01/25 09:28:22;;;;;;;73.00;65.30;;;3.70;99.90;;;;;;4971241;28;20033;-76
2024/01/25 09:30:54;;;;;;;118.43;107.83;;;3.80;99.90;;;;;;4960950;29;20035;-76
2024/01/25 09:33:20;;;;;;;69.72;58.17;;;3.80;99.90;;;;;;4970354;28;20068;-76
2024/01/25 09:35:47;;;;;;;80.97;72.93;;;3.80;99.90;;;;;;4966803;28;20048;-76
2024/01/25 09:38:13;;;;;;;91.85;82.68;;;3.90;99.90;;;;;;4967946;29;20070;-76
2024/01/25 09:40:39;;;;;;;76.78;67.97;;;3.90;99.90;;;;;;4964271;28;20086;-75
2024/01/25 09:43:05;;;;;;;100.00;90.33;;;3.90;99.90;;;;;;4986278;28;20051;-76
2024/01/25 09:45:31;;;;;;;89.23;79.97;;;4.00;99.90;;;;;;4960780;29;20134;-76
2024/01/25 09:47:57;;;;;;;91.75;83.03;;;4.10;99.90;;;;;;4955174;29;20043;-76
2024/01/25 09:50:23;;;;;;;108.35;98.50;;;4.10;99.90;;;;;;4958588;28;20099;-76
2024/01/25 09:52:59;;;;;;;116.70;106.50;;;4.20;99.90;;;;;;4966574;28;20039;-76
2024/01/25 09:55:26;;;;;;;94.22;85.30;;;4.30;99.90;;;;;;4977643;28;20039;-76
2024/01/25 09:57:57;;;;;;;91.93;82.85;;;4.30;99.90;;;;;;4970777;28;20043;-76
2024/01/25 10:00:23;;;;;;;88.88;80.07;;;4.40;99.90;;;;;;4961978;28;20513;-76
2024/01/25 10:02:49;;;;;;;106.50;96.68;;;4.40;99.90;;;;;;4960692;28;20057;-76
2024/01/25 10:05:16;;;;;;;209.43;192.63;;;4.50;99.90;;;;;;4978785;28;20102;-76
2024/01/25 10:07:44;;;;;;;100.93;91.93;;;4.50;99.90;;;;;;4961198;28;20055;-76
2024/01/25 10:10:11;;;;;;;140.15;127.78;;;4.60;99.90;;;;;;4958099;29;20031;-76
2024/01/25 10:12:38;;;;;;;129.77;118.18;;;4.60;99.90;;;;;;4973542;28;20452;-76
2024/01/25 10:15:05;;;;;;;134.73;123.93;;;4.70;99.90;;;;;;4973702;28;20039;-76
2024/01/25 10:17:31;;;;;;;135.25;124.35;;;4.80;99.90;;;;;;4963383;28;20074;-76
2024/01/25 10:19:57;;;;;;;163.82;151.20;;;4.80;99.90;;;;;;4968241;28;20046;-75
2024/01/25 10:22:23;;;;;;;163.20;150.20;;;4.90;99.90;;;;;;4949156;29;20039;-76
2024/01/25 10:24:53;;;;;;;148.00;134.60;;;4.90;99.90;;;;;;4965546;28;20106;-77
2024/01/25 10:27:19;;;;;;;205.32;189.63;;;5.00;99.90;;;;;;4957309;29;20389;-77
2024/01/25 10:29:45;;;;;;;243.27;224.50;;;5.10;99.90;;;;;;4964717;28;20054;-76
2024/01/25 10:32:11;;;;;;;318.77;295.00;;;5.20;99.90;;;;;;4956966;28;20290;-76
2024/01/25 10:34:37;;;;;;;260.77;241.37;;;5.20;99.90;;;;;;4974954;28;20054;-77
2024/01/25 10:37:07;;;;;;;231.02;213.77;;;5.40;99.90;;;;;;4967597;28;20067;-77
2024/01/25 10:39:34;;;;;;;285.88;263.23;;;5.50;99.90;;;;;;4973537;28;20039;-76
2024/01/25 10:42:00;;;;;;;235.30;217.88;;;5.60;99.90;;;;;;4956599;29;20086;-76
2024/01/25 10:44:26;;;;;;;351.73;324.77;;;5.70;99.90;;;;;;4960327;28;20039;-76
2024/01/25 10:46:54;;;;;;;332.42;306.67;;;5.90;99.90;;;;;;4968098;28;20059;-76
2024/01/25 10:49:21;;;;;;;272.23;251.75;;;6.00;99.90;;;;;;4960982;28;20031;-75
2024/01/25 10:51:48;;;;;;;314.13;290.17;;;6.10;99.90;;;;;;4973135;28;20051;-77
2024/01/25 10:54:15;;;;;;;314.08;289.40;;;6.20;99.90;;;;;;4956652;29;20038;-77
2024/01/25 10:56:42;;;;;;;401.90;370.60;;;6.30;99.90;;;;;;4971778;28;20059;-77
2024/01/25 10:59:10;;;;;;;369.92;342.15;;;6.30;99.90;;;;;;4959785;28;20039;-77
2024/01/25 11:01:36;;;;;;;362.05;335.25;;;6.30;99.90;;;;;;4976655;28;20038;-77
2024/01/25 11:04:02;;;;;;;474.47;434.17;;;6.30;99.90;;;;;;4970242;28;20039;-77
2024/01/25 11:06:28;;;;;;;348.60;321.40;;;6.30;99.90;;;;;;4973277;28;20047;-76
2024/01/25 11:09:08;;;;;;;435.67;403.13;;;6.40;99.90;;;;;;4958373;28;20051;-76
2024/01/25 11:11:36;;;;;;;246.32;229.25;;;6.40;99.90;;;;;;4967505;28;20043;-77
2024/01/25 11:14:02;;;;;;;309.30;287.75;;;6.40;99.90;;;;;;4940269;28;20047;-76
2024/01/25 11:16:31;;;;;;;388.88;359.85;;;6.40;99.90;;;;;;4957115;28;20043;-76
2024/01/25 11:19:09;;;;;;;330.58;307.30;;;6.40;99.90;;;;;;4937791;28;20038;-76
2024/01/25 11:21:43;;;;;;;269.90;250.27;;;6.40;99.90;;;;;;4953438;28;20086;-76
2024/01/25 11:24:21;;;;;;;302.13;280.17;;;6.50;99.90;;;;;;4929711;29;20065;-76
2024/01/25 11:26:47;;;;;;;275.08;256.00;;;6.50;99.90;;;;;;4942577;28;20043;-76
2024/01/25 11:29:17;;;;;;;272.33;252.40;;;6.50;99.90;;;;;;4925300;29;20044;-76
2024/01/25 11:31:44;;;;;;;244.77;227.75;;;6.50;99.90;;;;;;4944246;28;20039;-76
2024/01/25 11:34:11;;;;;;;245.05;226.88;;;6.50;99.90;;;;;;4929162;28;20162;-76
2024/01/25 11:36:37;;;;;;;304.60;281.10;;;6.50;99.90;;;;;;4936644;29;20441;-76
2024/01/25 11:39:06;;;;;;;322.00;298.08;;;6.50;99.90;;;;;;4949255;28;20488;-77
2024/01/25 11:41:33;;;;;;;267.90;248.63;;;6.50;99.90;;;;;;4939400;29;20042;-76
2024/01/25 11:43:58;;;;;;;290.90;269.90;;;6.50;99.90;;;;;;4971317;28;20186;-77
2024/01/25 11:46:25;;;;;;;313.67;289.83;;;6.50;99.90;;;;;;4967687;28;20039;-76
2024/01/25 11:48:51;;;;;;;268.63;248.52;;;6.60;99.90;;;;;;4969774;28;20045;-77
2024/01/25 11:51:17;;;;;;;324.55;300.20;;;6.60;99.90;;;;;;4972952;28;20046;-77
2024/01/25 11:53:43;;;;;;;354.07;327.50;;;6.60;99.90;;;;;;4970755;28;20050;-77
2024/01/25 11:56:16;;;;;;;345.97;321.63;;;6.60;99.90;;;;;;4963260;29;20047;-77
2024/01/25 11:58:45;;;;;;;382.98;353.85;;;6.70;99.90;;;;;;4970548;28;20053;-77
2024/01/25 12:01:12;;;;;;;305.92;284.15;;;6.70;99.90;;;;;;4959153;29;20036;-77
2024/01/25 12:03:39;;;;;;;308.00;285.23;;;6.70;99.90;;;;;;4962391;28;20107;-77
2024/01/25 12:06:05;;;;;;;287.77;266.52;;;6.70;99.90;;;;;;4993661;28;20043;-76
2024/01/25 12:08:32;;;;;;;320.83;297.73;;;6.70;99.90;;;;;;4956070;28;20026;-77
2024/01/25 12:11:07;;;;;;;416.30;383.02;;;6.70;99.90;;;;;;4972636;29;20040;-77
2024/01/25 12:13:40;;;;;;;307.25;285.63;;;6.70;99.90;;;;;;4969402;28;20042;-77
2024/01/25 12:16:10;;;;;;;390.10;361.85;;;6.80;99.90;;;;;;4961973;28;20133;-77
2024/01/25 12:18:37;;;;;;;336.00;310.80;;;6.90;99.90;;;;;;4962122;29;20040;-76
2024/01/25 12:21:04;;;;;;;308.73;286.05;;;7.00;99.90;;;;;;4952293;29;20047;-77